• Join FlightAware (Why Join?)
  • Login
  • US Flag 
07:52AM EST


 

Airport Tracker/Info


-or-


 

Live Flight TrackerFlight Track Log ✈ UPS1269 ✈ 28-Jan-2014 ✈ KROA - KGSO

Flight Track Log - Related Links

Times and Time Zones

All times are in EST time to prevent confusion due to time zone crossing. See the UPS1269 flight status page for this flight to view local times or setup timezone preferences in your user account.

Time Position Orientation Groundspeed Altitude Reporting Facility
EST Latitude Longitude Course Direction KTS MPH feet Rate Location/Type
10:59PM 36.8425 -80.0013 188° South  Level FlightAware Approximate
11:00PM 36.7746 -80.0126 188° South  Level FlightAware Approximate
11:01PM 36.7064 -80.0167 180° South  Level FlightAware Approximate
11:02PM 36.6380 -80.0132 176° South  Level FlightAware Approximate
11:03PM 36.5697 -80.0079 176° South  Level FlightAware Approximate
11:04PM 36.5014 -80.0027 176° South  Level FlightAware Approximate
11:05PM 36.4330 -79.9979 174° South  Level FlightAware Approximate
11:06PM 36.3649 -79.9894 174° South  Level FlightAware Approximate
11:07PM 36.2967 -79.9833 180° South  Level FlightAware Approximate
11:08PM 36.2293 -79.9698 169° South  Level FlightAware Approximate
11:09PM 36.1618 -79.9557 171° South  Level FlightAware Approximate
11:10PM 36.1000 -79.9333 158° South  Level FlightAware Approximate
11:11PM 36.1013 -79.9411 158° South  Level Estimated
11:12PM 36.1000 -79.9333 158° South  Level FlightAware Approximate
11:13PM 36.1013 -79.9411 158° South  Level Estimated
11:14PM 36.1000 -79.9333 158° South  Level FlightAware Approximate
11:15PM 36.1013 -79.9411 158° South  Level Estimated
11:16PM 36.1000 -79.9333 158° South  Level FlightAware Approximate
11:17PM 36.1013 -79.9411 158° South  Level Estimated
11:18PM 36.1000 -79.9333 158° South  Level FlightAware Approximate
11:19PM 36.1013 -79.9411 158° South  Level Estimated